Terminal Aerodrome Forecast
Issued by NWS Portland, OR

Home | Current Version | Previous Version | Text Only | Print | Product List | Glossary On
Versions: 1 2 3 4 5 6 7 8 9 10 11 12 13 14 15 16 17 18 19 20 21 22 23 24 25 26 27 28 29 30 31 32 33
000
FTUS46 KPQR 021901 AAA
TAFHIO
TAF AMD
KHIO 021901Z 0219/0318 31005KT P6SM VCSH SCT015 OVC060
      TEMPO 0219/0222 -SHRA BKN011 OVC050
     FM022200 30005KT P6SM VCSH SCT025 BKN050
     FM030100 30005KT P6SM VCSH BKN050 BKN080
     FM030700 VRB03KT P6SM SCT012 SCT025 BKN035=

USA.gov is the U.S. government's official web portal to all federal, state and local government web resources and services.